DTTJ METAR and TAF | Updated Today

DTTJ METAR

Djerba Zarzis International Airport

Observation time: 31 min. ago

DTTJ 080700Z 24016KT 9999 FEW020 14/03 Q1019 NOSIG

Need help? Read our tutorial on how to read METARs or read the parsed version below.

Djerba Zarzis International Airport (DTTJ) METAR

  • Weather conditions on Wed, 08 Dec 2021 07:00:00 +0000 (31 min. ago):
  • Present conditions: Dry
  • Clouds: A few at 610 meters
  • Visibility: Greater than 10 km
  • Wind: 240 degrees at 16 knots
  • Temperature: 14 celsius
  • Dew point: 3 celsius
  • Pressure: 1019 millibars
  • Remarks: None


Useful to know...

DTTJ TAF

Djerba Zarzis International Airport

TAF DTTJ 080500Z 0806/0906 26020G30KT CAVOK BECMG 0816/0818 23015KT BECMG 0900/0902 28020G30KT
Observation time: 2:31 hr. ago
Need help? Read our tutorial on how to read TAFs or read the parsed version below.

Parsed version of TAF for Djerba Zarzis International Airport (DTTJ)

  • From 08 December at 06:00 UTC, to day 09 of the month at 06:00 UTC
  • Visibility: Greater than 10 km
  • Wind: 260 degrees at 20
  • Expected to arise soon, from 08 December at 16:00 UTC, to day 08 of the month at 18:00 UTC
  • Wind: 230 degrees at 15
  • Expected to arise soon, from 09 December at 00:00 UTC, to day 09 of the month at 02:00 UTC
  • Wind: 280 degrees at 20

Airports near DTTJ

No airports found within 100nm radius.